クグルクトゥク の空港の天気 - METARとTAF

Coppermine ( CYCO / YCO ) - カナダ ヌナブト準州Kugluktuk
飛行場実況気象(Metar)
観測時間09/24 17:00 MDT (09/24 23:00 UTC)
風向・風速南 5m/s
視程10km以上
天気現象
少しの雲 雲底高度 730m
全天の8割程度の雲 雲底高度 1250m
全天の8割程度の雲 雲底高度 2320m
全天の8割程度の雲 雲底高度 6100m
気温8℃
湿度66%
気圧1004.1hPa
METARCYCO 242300Z 17009KT 15SM FEW024 BKN041 BKN076 BKN200 08/02 A2964 RMK CF1SC6AC1CI1 CF TR AC TR SLP041
過去の天気等 Google飛行場航空写真 Wunderground天気予報

過去48時間のMETAR

飛行場予報(TAF)
発表時間: 9/24 12:30 MDT (9/24 18:30 UTC)
予報対象時間: 24日13時 MDT ~ 25日1時 MDT
風向・風速南南東 8m/s
視程10km以上
少しの雲 雲底高度 760m
全天の8割程度の雲 雲底高度 6100m
24日13時 MDT ~ 25日1時 MDT に一時的に
全天の8割程度の雲 雲底高度 760m
24日18時 MDT ~ 24日20時 MDT に徐々に
風向・風速南東 3m/s
TAF CYCO 241830Z 2419/2507 16015KT P6SM FEW025 BKN200
TEMPO 2419/2507 BKN025
BECMG 2500/2502 14005KT RMK NXT FCST BY 250100Z